Irving, NY (14081)

1:20 PM EDT en Septiembre 26, 2016 (GMT -0400)
KNYIRVIN2 | | Change Station

Alt 587 ft 42.56 °N, 79.14 °W | Updated 1 second ago

Light Rain
Lluvia débil
67.1 ° F
Sensación térmica 67.1 ° F
N
0.0
Viento Variable Viento desde SE
Gusts 0.0 mph

Hoy
Alta -- | Baja -- ° F
--% Posibilidad de precipitaciones
Ayer
Alta -- | Baja -- ° F
Precip. -- pul
Presión 29.92 pul
Visibilidad 6.0 Millas
Nubes Baja 3300 ft
Muy nublado 7500 ft
Nublado 11000 ft
Punto de rocío 57 ° F
Humedad 70%
Precipitaciones 0.02 pul
Espesor de la nieve No disponible.
7:08 AM 7:05 PM
Creciente menguante, 17% visible
SPECI KDKK 261703Z AUTO 23012KT 6SM -RA BR FEW033 BKN075 OVC110 17/15 A2992 RMK AO2 P0001 T01670150
Presión 29.92 pul
Visibilidad 6.0 Millas
Nubes Baja 3300 ft
Muy nublado 7500 ft
Nublado 11000 ft
Punto de rocío 57 ° F
Humedad 70%
Precipitaciones 0.02 pul
Espesor de la nieve No disponible.
7:08 AM 7:05 PM
Creciente menguante, 17% visible
SPECI KDKK 261703Z AUTO 23012KT 6SM -RA BR FEW033 BKN075 OVC110 17/15 A2992 RMK AO2 P0001 T01670150

10-Day Weather Forecast

Almanac

Astronomía

Sep. 26, 2016 Salida Puesta
Hora real
Crepúsculo civil
Crepúsculo náutico
Crepúsculo astronómico
Luna
Horas de luz
Horas de luz
Tomorrow will be .
, % of the Moon is Illuminated

Extremos de hoy

Máximos del estado Bajos del estado

Community

WunderPhotos

Upload Photos

1,941,930 ¡fotos cargadas!

WunderBlog® & News

Nearby

Calidad del aire

  Calidad del aire Índice AQ Contaminante
Not available.

Grosos de nieve

Estación Profundido Altura

Actividad de terremotos

Ciudad Distance Mag. Tiempo y dato
Magnitud mínima muestra es 2,5.

Temperaturas de aguas costeras

Lugar Temperatura

Stations

Estaciones meteorológicas cercanas

Ubicación de la estación Temp. Vientos helados Punto de rocío Humedad Viento Precip. Alt Actualizado Tipo
                   

Watches & Warnings

There are currently no watches in effect.